sensor_id;sensor_type;location;lat;lon;timestamp;temperature;humidity
55207;DHT22;41079;52.856;6.534;2022-08-19T00:01:44;14.50;99.90
55207;DHT22;41079;52.856;6.534;2022-08-19T00:04:29;14.50;99.90
55207;DHT22;41079;52.856;6.534;2022-08-19T00:06:57;14.50;99.90
55207;DHT22;41079;52.856;6.534;2022-08-19T00:09:24;14.40;99.90
55207;DHT22;41079;52.856;6.534;2022-08-19T00:11:54;14.40;99.90
55207;DHT22;41079;52.856;6.534;2022-08-19T00:14:30;14.40;99.90
55207;DHT22;41079;52.856;6.534;2022-08-19T00:20:38;14.30;99.90
55207;DHT22;41079;52.856;6.534;2022-08-19T00:23:07;14.20;99.90
55207;DHT22;41079;52.856;6.534;2022-08-19T00:25:45;14.10;99.90
55207;DHT22;41079;52.856;6.534;2022-08-19T00:31:08;13.90;99.90
55207;DHT22;41079;52.856;6.534;2022-08-19T00:33:34;13.90;99.90
55207;DHT22;41079;52.856;6.534;2022-08-19T00:36:07;13.80;99.90
55207;DHT22;41079;52.856;6.534;2022-08-19T00:38:39;13.70;99.90
55207;DHT22;41079;52.856;6.534;2022-08-19T00:41:23;13.70;99.90
55207;DHT22;41079;52.856;6.534;2022-08-19T00:44:12;13.70;99.90
55207;DHT22;41079;52.856;6.534;2022-08-19T00:46:51;13.80;99.90
55207;DHT22;41079;52.856;6.534;2022-08-19T00:49:43;13.70;99.90
55207;DHT22;41079;52.856;6.534;2022-08-19T00:52:16;13.80;99.90
55207;DHT22;41079;52.856;6.534;2022-08-19T00:55:20;13.80;99.90
55207;DHT22;41079;52.856;6.534;2022-08-19T00:58:09;13.80;99.90
55207;DHT22;41079;52.856;6.534;2022-08-19T01:00:48;13.80;99.90
55207;DHT22;41079;52.856;6.534;2022-08-19T01:03:22;13.70;99.90
55207;DHT22;41079;52.856;6.534;2022-08-19T01:05:53;13.70;99.90
55207;DHT22;41079;52.856;6.534;2022-08-19T01:08:48;13.70;99.90
55207;DHT22;41079;52.856;6.534;2022-08-19T01:11:13;13.80;99.90
55207;DHT22;41079;52.856;6.534;2022-08-19T01:13:42;13.70;99.90
55207;DHT22;41079;52.856;6.534;2022-08-19T01:16:11;13.70;99.90
55207;DHT22;41079;52.856;6.534;2022-08-19T01:18:41;13.50;99.90
55207;DHT22;41079;52.856;6.534;2022-08-19T01:24:00;13.30;99.90
55207;DHT22;41079;52.856;6.534;2022-08-19T01:26:39;13.20;99.90
55207;DHT22;41079;52.856;6.534;2022-08-19T01:29:08;13.20;99.90
55207;DHT22;41079;52.856;6.534;2022-08-19T01:31:41;13.20;99.90
55207;DHT22;41079;52.856;6.534;2022-08-19T01:45:50;13.30;99.90
55207;DHT22;41079;52.856;6.534;2022-08-19T01:55:05;13.30;99.90
55207;DHT22;41079;52.856;6.534;2022-08-19T01:58:05;13.30;99.90
55207;DHT22;41079;52.856;6.534;2022-08-19T02:00:46;13.20;99.90
55207;DHT22;41079;52.856;6.534;2022-08-19T02:06:46;13.20;99.90
55207;DHT22;41079;52.856;6.534;2022-08-19T02:16:35;13.20;99.90
55207;DHT22;41079;52.856;6.534;2022-08-19T02:22:44;13.20;99.90
55207;DHT22;41079;52.856;6.534;2022-08-19T02:29:16;13.20;99.90
55207;DHT22;41079;52.856;6.534;2022-08-19T02:31:56;13.10;99.90
55207;DHT22;41079;52.856;6.534;2022-08-19T02:34:27;13.10;99.90
55207;DHT22;41079;52.856;6.534;2022-08-19T02:44:49;12.80;99.90
55207;DHT22;41079;52.856;6.534;2022-08-19T02:47:33;12.80;99.90
55207;DHT22;41079;52.856;6.534;2022-08-19T02:53:32;12.80;99.90
55207;DHT22;41079;52.856;6.534;2022-08-19T03:07:04;12.80;99.90
55207;DHT22;41079;52.856;6.534;2022-08-19T03:09:37;12.80;99.90
55207;DHT22;41079;52.856;6.534;2022-08-19T03:12:39;12.80;99.90
55207;DHT22;41079;52.856;6.534;2022-08-19T03:21:57;12.80;99.90
55207;DHT22;41079;52.856;6.534;2022-08-19T03:31:55;12.90;99.90
55207;DHT22;41079;52.856;6.534;2022-08-19T04:17:39;12.50;99.90
55207;DHT22;41079;52.856;6.534;2022-08-19T04:20:17;12.40;99.90
55207;DHT22;41079;52.856;6.534;2022-08-19T04:23:15;12.30;99.90
55207;DHT22;41079;52.856;6.534;2022-08-19T04:33:03;12.30;99.90
55207;DHT22;41079;52.856;6.534;2022-08-19T04:39:38;12.20;99.90
55207;DHT22;41079;52.856;6.534;2022-08-19T04:46:16;12.30;99.90
55207;DHT22;41079;52.856;6.534;2022-08-19T04:48:45;12.40;99.90
55207;DHT22;41079;52.856;6.534;2022-08-19T04:51:25;12.40;99.90
55207;DHT22;41079;52.856;6.534;2022-08-19T04:53:57;12.40;99.90
55207;DHT22;41079;52.856;6.534;2022-08-19T04:59:58;12.40;99.90
55207;DHT22;41079;52.856;6.534;2022-08-19T05:02:27;12.40;99.90
55207;DHT22;41079;52.856;6.534;2022-08-19T05:08:36;12.50;99.90
55207;DHT22;41079;52.856;6.534;2022-08-19T05:11:13;12.50;99.90
55207;DHT22;41079;52.856;6.534;2022-08-19T05:24:44;13.10;99.90
55207;DHT22;41079;52.856;6.534;2022-08-19T05:34:16;14.20;99.90
55207;DHT22;41079;52.856;6.534;2022-08-19T05:36:55;15.10;99.90
55207;DHT22;41079;52.856;6.534;2022-08-19T05:39:41;16.00;99.90
55207;DHT22;41079;52.856;6.534;2022-08-19T05:42:26;16.80;99.90
55207;DHT22;41079;52.856;6.534;2022-08-19T05:45:28;17.50;99.90
55207;DHT22;41079;52.856;6.534;2022-08-19T05:47:53;17.90;99.90
55207;DHT22;41079;52.856;6.534;2022-08-19T05:50:39;17.50;99.90
55207;DHT22;41079;52.856;6.534;2022-08-19T05:53:08;17.00;99.90
55207;DHT22;41079;52.856;6.534;2022-08-19T05:55:34;16.80;99.90
55207;DHT22;41079;52.856;6.534;2022-08-19T06:01:27;16.90;99.90
55207;DHT22;41079;52.856;6.534;2022-08-19T06:04:19;17.00;99.90
55207;DHT22;41079;52.856;6.534;2022-08-19T06:10:26;17.20;99.90
55207;DHT22;41079;52.856;6.534;2022-08-19T06:13:07;17.50;99.90
55207;DHT22;41079;52.856;6.534;2022-08-19T06:26:29;18.60;99.90
55207;DHT22;41079;52.856;6.534;2022-08-19T06:38:58;19.40;99.90
55207;DHT22;41079;52.856;6.534;2022-08-19T06:48:59;19.90;99.90
55207;DHT22;41079;52.856;6.534;2022-08-19T06:51:38;20.10;99.90
55207;DHT22;41079;52.856;6.534;2022-08-19T06:58:18;20.20;99.90
55207;DHT22;41079;52.856;6.534;2022-08-19T07:01:19;20.20;99.90
55207;DHT22;41079;52.856;6.534;2022-08-19T07:08:00;20.60;99.90
55207;DHT22;41079;52.856;6.534;2022-08-19T07:13:36;20.90;99.90
55207;DHT22;41079;52.856;6.534;2022-08-19T07:16:18;21.00;99.90
55207;DHT22;41079;52.856;6.534;2022-08-19T07:22:07;21.30;99.90
55207;DHT22;41079;52.856;6.534;2022-08-19T07:28:14;21.50;99.90
55207;DHT22;41079;52.856;6.534;2022-08-19T07:31:01;21.70;99.90
55207;DHT22;41079;52.856;6.534;2022-08-19T07:33:37;21.90;99.90
55207;DHT22;41079;52.856;6.534;2022-08-19T07:36:07;22.10;99.90
55207;DHT22;41079;52.856;6.534;2022-08-19T07:38:37;22.30;99.90
55207;DHT22;41079;52.856;6.534;2022-08-19T07:41:03;22.20;99.90
55207;DHT22;41079;52.856;6.534;2022-08-19T07:43:31;22.20;99.90
55207;DHT22;41079;52.856;6.534;2022-08-19T07:45:58;22.20;99.90
55207;DHT22;41079;52.856;6.534;2022-08-19T07:48:28;22.40;99.90
55207;DHT22;41079;52.856;6.534;2022-08-19T07:51:02;22.60;99.90
55207;DHT22;41079;52.856;6.534;2022-08-19T07:53:35;22.90;99.90
55207;DHT22;41079;52.856;6.534;2022-08-19T07:56:17;23.00;99.90
55207;DHT22;41079;52.856;6.534;2022-08-19T07:58:45;23.10;99.90
55207;DHT22;41079;52.856;6.534;2022-08-19T08:01:17;23.20;99.90
55207;DHT22;41079;52.856;6.534;2022-08-19T08:03:52;23.30;99.90
55207;DHT22;41079;52.856;6.534;2022-08-19T08:06:49;23.60;99.90
55207;DHT22;41079;52.856;6.534;2022-08-19T08:09:44;23.80;99.90
55207;DHT22;41079;52.856;6.534;2022-08-19T08:12:24;24.00;99.90
55207;DHT22;41079;52.856;6.534;2022-08-19T08:14:59;24.20;99.90
55207;DHT22;41079;52.856;6.534;2022-08-19T08:17:29;24.30;99.90
55207;DHT22;41079;52.856;6.534;2022-08-19T08:19:58;24.30;99.90
55207;DHT22;41079;52.856;6.534;2022-08-19T08:22:50;24.40;99.90
55207;DHT22;41079;52.856;6.534;2022-08-19T08:25:35;24.50;99.90
55207;DHT22;41079;52.856;6.534;2022-08-19T08:28:03;24.50;99.90
55207;DHT22;41079;52.856;6.534;2022-08-19T08:30:31;24.70;99.90
55207;DHT22;41079;52.856;6.534;2022-08-19T08:32:59;24.90;99.90
55207;DHT22;41079;52.856;6.534;2022-08-19T08:36:01;25.00;99.90
55207;DHT22;41079;52.856;6.534;2022-08-19T08:38:27;25.10;99.90
55207;DHT22;41079;52.856;6.534;2022-08-19T08:41:00;25.20;99.90
55207;DHT22;41079;52.856;6.534;2022-08-19T08:43:39;25.20;99.90
55207;DHT22;41079;52.856;6.534;2022-08-19T08:46:58;25.20;99.90
55207;DHT22;41079;52.856;6.534;2022-08-19T08:52:09;25.40;99.90
55207;DHT22;41079;52.856;6.534;2022-08-19T08:54:53;25.30;99.90
55207;DHT22;41079;52.856;6.534;2022-08-19T08:57:32;25.30;99.90
55207;DHT22;41079;52.856;6.534;2022-08-19T09:02:53;25.60;99.90
55207;DHT22;41079;52.856;6.534;2022-08-19T09:05:20;25.50;99.90
55207;DHT22;41079;52.856;6.534;2022-08-19T09:08:29;25.60;99.90
55207;DHT22;41079;52.856;6.534;2022-08-19T09:10:59;25.70;99.90
55207;DHT22;41079;52.856;6.534;2022-08-19T09:13:42;25.80;99.90
55207;DHT22;41079;52.856;6.534;2022-08-19T09:16:17;25.90;99.90
55207;DHT22;41079;52.856;6.534;2022-08-19T09:18:53;25.90;99.90
55207;DHT22;41079;52.856;6.534;2022-08-19T09:21:26;26.10;99.90
55207;DHT22;41079;52.856;6.534;2022-08-19T09:27:02;26.50;99.90
55207;DHT22;41079;52.856;6.534;2022-08-19T09:29:35;26.70;99.90
55207;DHT22;41079;52.856;6.534;2022-08-19T09:32:05;26.80;99.90
55207;DHT22;41079;52.856;6.534;2022-08-19T09:34:32;26.80;98.40
55207;DHT22;41079;52.856;6.534;2022-08-19T09:36:58;26.60;97.60
55207;DHT22;41079;52.856;6.534;2022-08-19T09:39:25;26.40;97.30
55207;DHT22;41079;52.856;6.534;2022-08-19T09:41:51;26.50;98.80
55207;DHT22;41079;52.856;6.534;2022-08-19T09:44:18;26.70;98.60
55207;DHT22;41079;52.856;6.534;2022-08-19T09:46:45;26.90;99.00
55207;DHT22;41079;52.856;6.534;2022-08-19T09:49:23;26.90;98.60
55207;DHT22;41079;52.856;6.534;2022-08-19T09:51:56;27.00;96.90
55207;DHT22;41079;52.856;6.534;2022-08-19T09:54:27;27.20;96.10
55207;DHT22;41079;52.856;6.534;2022-08-19T09:56:58;27.20;95.50
55207;DHT22;41079;52.856;6.534;2022-08-19T09:59:29;27.10;95.80
55207;DHT22;41079;52.856;6.534;2022-08-19T10:01:56;27.40;96.60
55207;DHT22;41079;52.856;6.534;2022-08-19T10:04:27;27.40;93.60
55207;DHT22;41079;52.856;6.534;2022-08-19T10:07:15;27.40;94.10
55207;DHT22;41079;52.856;6.534;2022-08-19T10:09:57;27.50;94.80
55207;DHT22;41079;52.856;6.534;2022-08-19T10:12:27;27.70;93.90
55207;DHT22;41079;52.856;6.534;2022-08-19T10:14:59;27.80;93.10
55207;DHT22;41079;52.856;6.534;2022-08-19T10:17:25;28.00;94.00
55207;DHT22;41079;52.856;6.534;2022-08-19T10:19:55;28.20;92.80
55207;DHT22;41079;52.856;6.534;2022-08-19T10:22:31;28.30;90.30
55207;DHT22;41079;52.856;6.534;2022-08-19T10:24:57;28.20;90.60
55207;DHT22;41079;52.856;6.534;2022-08-19T10:27:25;28.10;88.80
55207;DHT22;41079;52.856;6.534;2022-08-19T10:30:00;27.80;88.20
55207;DHT22;41079;52.856;6.534;2022-08-19T10:32:26;27.80;89.10
55207;DHT22;41079;52.856;6.534;2022-08-19T10:34:52;28.00;90.70
55207;DHT22;41079;52.856;6.534;2022-08-19T10:37:20;28.20;90.20
55207;DHT22;41079;52.856;6.534;2022-08-19T10:39:46;28.20;89.90
55207;DHT22;41079;52.856;6.534;2022-08-19T10:42:18;28.10;88.30
55207;DHT22;41079;52.856;6.534;2022-08-19T10:44:44;28.20;88.60
55207;DHT22;41079;52.856;6.534;2022-08-19T10:47:10;28.20;85.20
55207;DHT22;41079;52.856;6.534;2022-08-19T10:49:40;28.20;84.70
55207;DHT22;41079;52.856;6.534;2022-08-19T10:52:31;27.80;85.20
55207;DHT22;41079;52.856;6.534;2022-08-19T10:55:03;27.30;84.40
55207;DHT22;41079;52.856;6.534;2022-08-19T10:57:48;26.90;86.80
55207;DHT22;41079;52.856;6.534;2022-08-19T11:00:14;26.70;86.10
55207;DHT22;41079;52.856;6.534;2022-08-19T11:02:49;26.50;87.70
55207;DHT22;41079;52.856;6.534;2022-08-19T11:05:17;26.70;89.70
55207;DHT22;41079;52.856;6.534;2022-08-19T11:07:44;26.90;90.10
55207;DHT22;41079;52.856;6.534;2022-08-19T11:10:13;27.20;88.20
55207;DHT22;41079;52.856;6.534;2022-08-19T11:12:40;27.40;86.00
55207;DHT22;41079;52.856;6.534;2022-08-19T11:15:09;27.70;89.00
55207;DHT22;41079;52.856;6.534;2022-08-19T11:17:39;27.80;87.70
55207;DHT22;41079;52.856;6.534;2022-08-19T11:20:10;27.40;88.00
55207;DHT22;41079;52.856;6.534;2022-08-19T11:22:37;27.10;90.30
55207;DHT22;41079;52.856;6.534;2022-08-19T11:25:03;27.00;90.80
55207;DHT22;41079;52.856;6.534;2022-08-19T11:27:48;27.10;90.90
55207;DHT22;41079;52.856;6.534;2022-08-19T11:30:20;27.00;91.10
55207;DHT22;41079;52.856;6.534;2022-08-19T11:32:45;26.70;91.20
55207;DHT22;41079;52.856;6.534;2022-08-19T11:35:20;26.40;92.20
55207;DHT22;41079;52.856;6.534;2022-08-19T11:37:52;26.40;93.20
55207;DHT22;41079;52.856;6.534;2022-08-19T11:40:23;26.40;93.20
55207;DHT22;41079;52.856;6.534;2022-08-19T11:42:52;26.40;93.20
55207;DHT22;41079;52.856;6.534;2022-08-19T11:45:26;26.50;92.70
55207;DHT22;41079;52.856;6.534;2022-08-19T11:47:55;26.60;91.60
55207;DHT22;41079;52.856;6.534;2022-08-19T11:50:24;26.50;91.50
55207;DHT22;41079;52.856;6.534;2022-08-19T11:52:55;26.40;91.80
55207;DHT22;41079;52.856;6.534;2022-08-19T11:55:21;26.60;92.30
55207;DHT22;41079;52.856;6.534;2022-08-19T11:57:48;26.90;91.80
55207;DHT22;41079;52.856;6.534;2022-08-19T12:00:14;27.20;87.30
55207;DHT22;41079;52.856;6.534;2022-08-19T12:02:53;27.20;88.10
55207;DHT22;41079;52.856;6.534;2022-08-19T12:05:20;27.30;86.80
55207;DHT22;41079;52.856;6.534;2022-08-19T12:07:45;27.20;85.50
55207;DHT22;41079;52.856;6.534;2022-08-19T12:10:12;27.20;87.90
55207;DHT22;41079;52.856;6.534;2022-08-19T12:12:52;27.30;88.70
55207;DHT22;41079;52.856;6.534;2022-08-19T12:15:17;27.60;87.80
55207;DHT22;41079;52.856;6.534;2022-08-19T12:17:43;28.00;84.70
55207;DHT22;41079;52.856;6.534;2022-08-19T12:20:12;28.40;84.30
55207;DHT22;41079;52.856;6.534;2022-08-19T12:22:45;28.80;81.70
55207;DHT22;41079;52.856;6.534;2022-08-19T12:25:11;29.00;79.50
55207;DHT22;41079;52.856;6.534;2022-08-19T12:27:38;29.10;74.60
55207;DHT22;41079;52.856;6.534;2022-08-19T12:30:05;28.80;71.50
55207;DHT22;41079;52.856;6.534;2022-08-19T12:32:33;28.60;70.30
55207;DHT22;41079;52.856;6.534;2022-08-19T12:34:58;28.40;69.20
55207;DHT22;41079;52.856;6.534;2022-08-19T12:37:33;28.50;71.40
55207;DHT22;41079;52.856;6.534;2022-08-19T12:40:05;28.50;72.50
55207;DHT22;41079;52.856;6.534;2022-08-19T12:42:31;28.70;69.60
55207;DHT22;41079;52.856;6.534;2022-08-19T12:44:57;28.80;70.10
55207;DHT22;41079;52.856;6.534;2022-08-19T12:47:22;28.80;66.90
55207;DHT22;41079;52.856;6.534;2022-08-19T12:49:49;29.00;69.20
55207;DHT22;41079;52.856;6.534;2022-08-19T12:52:14;29.20;68.00
55207;DHT22;41079;52.856;6.534;2022-08-19T12:54:41;29.40;67.90
55207;DHT22;41079;52.856;6.534;2022-08-19T12:57:14;29.60;69.30
55207;DHT22;41079;52.856;6.534;2022-08-19T12:59:43;29.60;66.70
55207;DHT22;41079;52.856;6.534;2022-08-19T13:02:12;29.60;67.50
55207;DHT22;41079;52.856;6.534;2022-08-19T13:04:38;29.70;67.50
55207;DHT22;41079;52.856;6.534;2022-08-19T13:07:07;29.70;65.80
55207;DHT22;41079;52.856;6.534;2022-08-19T13:09:39;29.70;66.30
55207;DHT22;41079;52.856;6.534;2022-08-19T13:12:17;29.50;66.70
55207;DHT22;41079;52.856;6.534;2022-08-19T13:14:45;29.50;67.30
55207;DHT22;41079;52.856;6.534;2022-08-19T13:17:16;29.60;67.00
55207;DHT22;41079;52.856;6.534;2022-08-19T13:19:41;29.90;68.10
55207;DHT22;41079;52.856;6.534;2022-08-19T13:22:07;30.10;66.40
55207;DHT22;41079;52.856;6.534;2022-08-19T13:24:34;29.90;65.60
55207;DHT22;41079;52.856;6.534;2022-08-19T13:27:00;30.00;65.70
55207;DHT22;41079;52.856;6.534;2022-08-19T13:29:27;29.80;66.90
55207;DHT22;41079;52.856;6.534;2022-08-19T13:32:20;29.70;69.10
55207;DHT22;41079;52.856;6.534;2022-08-19T13:35:10;29.60;68.30
55207;DHT22;41079;52.856;6.534;2022-08-19T13:37:38;29.50;67.30
55207;DHT22;41079;52.856;6.534;2022-08-19T13:40:19;29.30;69.30
55207;DHT22;41079;52.856;6.534;2022-08-19T13:42:52;28.90;70.70
55207;DHT22;41079;52.856;6.534;2022-08-19T13:45:22;28.60;72.50
55207;DHT22;41079;52.856;6.534;2022-08-19T13:48:10;28.20;73.90
55207;DHT22;41079;52.856;6.534;2022-08-19T13:50:43;27.90;75.50
55207;DHT22;41079;52.856;6.534;2022-08-19T13:53:17;27.80;76.30
55207;DHT22;41079;52.856;6.534;2022-08-19T13:55:44;27.60;77.80
55207;DHT22;41079;52.856;6.534;2022-08-19T13:58:12;27.20;78.40
55207;DHT22;41079;52.856;6.534;2022-08-19T14:00:45;26.90;80.20
55207;DHT22;41079;52.856;6.534;2022-08-19T14:03:20;26.50;81.70
55207;DHT22;41079;52.856;6.534;2022-08-19T14:06:11;26.30;83.40
55207;DHT22;41079;52.856;6.534;2022-08-19T14:08:40;26.30;85.90
55207;DHT22;41079;52.856;6.534;2022-08-19T14:11:13;26.40;87.00
55207;DHT22;41079;52.856;6.534;2022-08-19T14:13:39;26.20;88.70
55207;DHT22;41079;52.856;6.534;2022-08-19T14:16:21;26.20;90.60
55207;DHT22;41079;52.856;6.534;2022-08-19T14:18:53;26.20;91.00
55207;DHT22;41079;52.856;6.534;2022-08-19T14:21:26;26.20;90.80
55207;DHT22;41079;52.856;6.534;2022-08-19T14:23:55;26.20;91.80
55207;DHT22;41079;52.856;6.534;2022-08-19T14:26:23;26.20;91.90
55207;DHT22;41079;52.856;6.534;2022-08-19T14:28:50;26.10;92.30
55207;DHT22;41079;52.856;6.534;2022-08-19T14:31:17;26.30;92.50
55207;DHT22;41079;52.856;6.534;2022-08-19T14:33:49;26.20;92.20
55207;DHT22;41079;52.856;6.534;2022-08-19T14:36:17;26.10;92.00
55207;DHT22;41079;52.856;6.534;2022-08-19T14:38:43;26.00;92.60
55207;DHT22;41079;52.856;6.534;2022-08-19T14:41:24;25.90;93.50
55207;DHT22;41079;52.856;6.534;2022-08-19T14:43:51;25.80;93.80
55207;DHT22;41079;52.856;6.534;2022-08-19T14:46:47;25.80;94.60
55207;DHT22;41079;52.856;6.534;2022-08-19T14:49:13;25.80;95.30
55207;DHT22;41079;52.856;6.534;2022-08-19T14:51:48;26.10;96.40
55207;DHT22;41079;52.856;6.534;2022-08-19T14:54:21;26.10;95.80
55207;DHT22;41079;52.856;6.534;2022-08-19T14:56:54;26.00;95.70
55207;DHT22;41079;52.856;6.534;2022-08-19T14:59:19;25.90;96.00
55207;DHT22;41079;52.856;6.534;2022-08-19T15:01:45;26.00;95.80
55207;DHT22;41079;52.856;6.534;2022-08-19T15:04:10;26.10;95.70
55207;DHT22;41079;52.856;6.534;2022-08-19T15:06:36;26.20;96.10
55207;DHT22;41079;52.856;6.534;2022-08-19T15:09:06;26.00;96.20
55207;DHT22;41079;52.856;6.534;2022-08-19T15:11:38;25.80;97.60
55207;DHT22;41079;52.856;6.534;2022-08-19T15:14:10;25.50;99.10
55207;DHT22;41079;52.856;6.534;2022-08-19T15:16:35;25.20;99.90
55207;DHT22;41079;52.856;6.534;2022-08-19T15:19:04;24.90;99.90
55207;DHT22;41079;52.856;6.534;2022-08-19T15:21:32;24.70;99.90
55207;DHT22;41079;52.856;6.534;2022-08-19T15:24:00;24.60;99.90
55207;DHT22;41079;52.856;6.534;2022-08-19T15:26:29;24.50;99.90
55207;DHT22;41079;52.856;6.534;2022-08-19T15:28:58;24.50;99.90
55207;DHT22;41079;52.856;6.534;2022-08-19T15:31:30;24.60;99.90
55207;DHT22;41079;52.856;6.534;2022-08-19T15:34:03;24.60;99.90
55207;DHT22;41079;52.856;6.534;2022-08-19T15:36:31;24.70;99.90
55207;DHT22;41079;52.856;6.534;2022-08-19T15:38:57;24.70;99.90
55207;DHT22;41079;52.856;6.534;2022-08-19T15:41:29;24.80;99.90
55207;DHT22;41079;52.856;6.534;2022-08-19T15:44:00;24.90;99.90
55207;DHT22;41079;52.856;6.534;2022-08-19T15:46:30;24.90;99.90
55207;DHT22;41079;52.856;6.534;2022-08-19T15:49:00;24.90;99.90
55207;DHT22;41079;52.856;6.534;2022-08-19T15:51:32;24.80;99.90
55207;DHT22;41079;52.856;6.534;2022-08-19T15:54:01;24.60;99.90
55207;DHT22;41079;52.856;6.534;2022-08-19T15:56:30;24.60;99.90
55207;DHT22;41079;52.856;6.534;2022-08-19T15:59:14;24.40;99.90
55207;DHT22;41079;52.856;6.534;2022-08-19T16:01:58;24.30;99.90
55207;DHT22;41079;52.856;6.534;2022-08-19T16:04:42;24.20;99.90
55207;DHT22;41079;52.856;6.534;2022-08-19T16:07:26;24.20;99.90
55207;DHT22;41079;52.856;6.534;2022-08-19T16:10:03;24.00;99.90
55207;DHT22;41079;52.856;6.534;2022-08-19T16:12:45;23.90;99.90
55207;DHT22;41079;52.856;6.534;2022-08-19T16:15:11;23.90;99.90
55207;DHT22;41079;52.856;6.534;2022-08-19T16:17:46;23.90;99.90
55207;DHT22;41079;52.856;6.534;2022-08-19T16:20:12;23.80;99.90
55207;DHT22;41079;52.856;6.534;2022-08-19T16:22:39;23.80;99.90
55207;DHT22;41079;52.856;6.534;2022-08-19T16:25:10;23.80;99.90
55207;DHT22;41079;52.856;6.534;2022-08-19T16:27:36;23.80;99.90
55207;DHT22;41079;52.856;6.534;2022-08-19T16:30:09;23.80;99.90
55207;DHT22;41079;52.856;6.534;2022-08-19T16:32:42;23.80;99.90
55207;DHT22;41079;52.856;6.534;2022-08-19T16:35:17;23.80;99.90
55207;DHT22;41079;52.856;6.534;2022-08-19T16:37:42;23.80;99.90
55207;DHT22;41079;52.856;6.534;2022-08-19T16:40:09;23.80;99.90
55207;DHT22;41079;52.856;6.534;2022-08-19T16:42:35;23.90;99.90
55207;DHT22;41079;52.856;6.534;2022-08-19T16:45:05;23.80;99.90
55207;DHT22;41079;52.856;6.534;2022-08-19T16:47:33;23.80;99.90
55207;DHT22;41079;52.856;6.534;2022-08-19T16:49:59;23.90;99.90
55207;DHT22;41079;52.856;6.534;2022-08-19T16:52:25;24.00;99.90
55207;DHT22;41079;52.856;6.534;2022-08-19T16:54:55;24.00;99.90
55207;DHT22;41079;52.856;6.534;2022-08-19T16:57:40;24.00;99.90
55207;DHT22;41079;52.856;6.534;2022-08-19T17:00:11;24.00;99.90
55207;DHT22;41079;52.856;6.534;2022-08-19T17:02:39;24.00;99.90
55207;DHT22;41079;52.856;6.534;2022-08-19T17:05:11;24.10;99.90
55207;DHT22;41079;52.856;6.534;2022-08-19T17:07:48;24.10;99.90
55207;DHT22;41079;52.856;6.534;2022-08-19T17:10:19;24.20;99.90
55207;DHT22;41079;52.856;6.534;2022-08-19T17:12:53;24.20;99.90
55207;DHT22;41079;52.856;6.534;2022-08-19T17:15:19;24.20;99.90
55207;DHT22;41079;52.856;6.534;2022-08-19T17:17:48;24.20;99.90
55207;DHT22;41079;52.856;6.534;2022-08-19T17:20:15;24.10;99.90
55207;DHT22;41079;52.856;6.534;2022-08-19T17:22:44;24.00;99.90
55207;DHT22;41079;52.856;6.534;2022-08-19T17:25:15;23.90;99.90
55207;DHT22;41079;52.856;6.534;2022-08-19T17:27:40;23.90;99.90
55207;DHT22;41079;52.856;6.534;2022-08-19T17:30:15;23.80;99.90
55207;DHT22;41079;52.856;6.534;2022-08-19T17:32:41;23.80;99.90
55207;DHT22;41079;52.856;6.534;2022-08-19T17:35:21;23.70;99.90
55207;DHT22;41079;52.856;6.534;2022-08-19T17:37:47;23.60;99.90
55207;DHT22;41079;52.856;6.534;2022-08-19T17:40:15;23.60;99.90
55207;DHT22;41079;52.856;6.534;2022-08-19T17:42:41;23.50;99.90
55207;DHT22;41079;52.856;6.534;2022-08-19T17:45:12;23.40;99.90
55207;DHT22;41079;52.856;6.534;2022-08-19T17:47:39;23.30;99.90
55207;DHT22;41079;52.856;6.534;2022-08-19T17:50:17;23.20;99.90
55207;DHT22;41079;52.856;6.534;2022-08-19T17:52:46;23.10;99.90
55207;DHT22;41079;52.856;6.534;2022-08-19T17:55:12;23.00;99.90
55207;DHT22;41079;52.856;6.534;2022-08-19T17:57:38;23.00;99.90
55207;DHT22;41079;52.856;6.534;2022-08-19T18:00:07;22.90;99.90
55207;DHT22;41079;52.856;6.534;2022-08-19T18:02:51;22.90;99.90
55207;DHT22;41079;52.856;6.534;2022-08-19T18:05:27;22.80;99.90
55207;DHT22;41079;52.856;6.534;2022-08-19T18:07:58;22.70;99.90
55207;DHT22;41079;52.856;6.534;2022-08-19T18:10:31;22.70;99.90
55207;DHT22;41079;52.856;6.534;2022-08-19T18:13:03;22.60;99.90
55207;DHT22;41079;52.856;6.534;2022-08-19T18:15:40;22.50;99.90
55207;DHT22;41079;52.856;6.534;2022-08-19T18:18:07;22.30;99.90
55207;DHT22;41079;52.856;6.534;2022-08-19T18:20:35;22.10;99.90
55207;DHT22;41079;52.856;6.534;2022-08-19T18:23:05;21.90;99.90
55207;DHT22;41079;52.856;6.534;2022-08-19T18:25:31;21.70;99.90
55207;DHT22;41079;52.856;6.534;2022-08-19T18:28:02;21.60;99.90
55207;DHT22;41079;52.856;6.534;2022-08-19T18:30:39;21.50;99.90
55207;DHT22;41079;52.856;6.534;2022-08-19T18:33:08;21.40;99.90
55207;DHT22;41079;52.856;6.534;2022-08-19T18:35:45;21.30;99.90
55207;DHT22;41079;52.856;6.534;2022-08-19T18:45:16;21.10;99.90
55207;DHT22;41079;52.856;6.534;2022-08-19T18:48:05;21.00;99.90
55207;DHT22;41079;52.856;6.534;2022-08-19T18:50:51;20.90;99.90
55207;DHT22;41079;52.856;6.534;2022-08-19T18:53:16;20.80;99.90
55207;DHT22;41079;52.856;6.534;2022-08-19T18:55:46;20.70;99.90
55207;DHT22;41079;52.856;6.534;2022-08-19T18:58:14;20.70;99.90
55207;DHT22;41079;52.856;6.534;2022-08-19T19:00:40;20.60;99.90
55207;DHT22;41079;52.856;6.534;2022-08-19T19:03:06;20.50;99.90
55207;DHT22;41079;52.856;6.534;2022-08-19T19:05:32;20.50;99.90
55207;DHT22;41079;52.856;6.534;2022-08-19T19:08:04;20.30;99.90
55207;DHT22;41079;52.856;6.534;2022-08-19T19:10:33;20.20;99.90
55207;DHT22;41079;52.856;6.534;2022-08-19T19:13:27;20.10;99.90
55207;DHT22;41079;52.856;6.534;2022-08-19T19:15:54;20.10;99.90
55207;DHT22;41079;52.856;6.534;2022-08-19T19:18:21;20.10;99.90
55207;DHT22;41079;52.856;6.534;2022-08-19T19:20:47;20.10;99.90
55207;DHT22;41079;52.856;6.534;2022-08-19T19:23:13;20.00;99.90
55207;DHT22;41079;52.856;6.534;2022-08-19T19:26:02;20.00;99.90
55207;DHT22;41079;52.856;6.534;2022-08-19T19:28:28;20.00;99.90
55207;DHT22;41079;52.856;6.534;2022-08-19T19:31:06;20.00;99.90
55207;DHT22;41079;52.856;6.534;2022-08-19T19:33:40;20.00;99.90
55207;DHT22;41079;52.856;6.534;2022-08-19T19:36:12;20.10;99.90
55207;DHT22;41079;52.856;6.534;2022-08-19T19:38:41;20.00;99.90
55207;DHT22;41079;52.856;6.534;2022-08-19T19:41:14;20.00;99.90
55207;DHT22;41079;52.856;6.534;2022-08-19T19:43:40;20.00;99.90
55207;DHT22;41079;52.856;6.534;2022-08-19T19:46:06;19.90;99.90
55207;DHT22;41079;52.856;6.534;2022-08-19T19:48:31;19.90;99.90
55207;DHT22;41079;52.856;6.534;2022-08-19T19:50:58;19.80;99.90
55207;DHT22;41079;52.856;6.534;2022-08-19T19:53:25;19.70;99.90
55207;DHT22;41079;52.856;6.534;2022-08-19T19:56:10;19.70;99.90
55207;DHT22;41079;52.856;6.534;2022-08-19T19:58:37;19.60;99.90
55207;DHT22;41079;52.856;6.534;2022-08-19T20:01:34;19.60;99.90